Nett Lake, Minnesota
Current Conditions -  °F | °C
As of 9:13 PM on Saturday 22 Nov 2014 (Local Time) from KORB Reporting Station
Clear Clear  
Wind Chill: 30°   Ceiling: Unl
Heat Index: 30°   Visibility: 7mi
Dew Point: 27°   Wind: 0mph
Humidity: 86%   Direction: NA
Pressure: 29.49"   Gusts: NA
Location:  48.11°N, 93.09°W
Report Text: KORB 230313Z AUTO 00000KT 7SM CLR M01/M03 A2949 RMK AO2
Loading
Personal Weather Stations






























Interactive Weather Map New forecast layout! Learn more

10-Day Weather Forecast

Advertisements
Track Severe Weather on mobile